METAR AND TAF INFORMATION
METAR FOR WBSB
WBSB 260230Z 36007KT 9999 SCT015 BKN300 30/28 Q1012 NOSIG
WBSB 260200Z 02004KT 9999 SCT015 BKN300 30/27 Q1013 NOSIG
WBSB 260130Z 03004KT 9999 SCT015 BKN300 30/27 Q1012 NOSIG
WBSB 260100Z 01005KT 9999 SCT015 BKN300 29/27 Q1012 NOSIG
WBSB 260030Z 03006KT 9999 FEW015 BKN300 29/27 Q1012 NOSIG
WBSB 260000Z 03006KT 9999 FEW005 BKN300 28/27 Q1012 NOSIG
WBSB 252330Z 03006KT 9999 FEW004 BKN300 27/27 Q1011 NOSIG

TAF WBSB 252300Z 2600/2706 02006KT 9999 FEW015
BECMG 2606/2608 34012KT FEW016 FEW017CB
BECMG 2612/2614 02008KT SCT015 FEW016CB

 AIRPORT MAP

 RUNWAY INFORMATION
Runway 03 Runway length 12000 ft Runway width 150 ft
Runway elevation 20 ft Runway displaced threshold 0 ft Runway heading 31
Runway 21 Runway length 12000 ft Runway width 150 ft
Runway elevation 72 ft Runway displaced threshold 0 ft Runway heading 211

 AIRPORT FREQUENCIES
Type APP Name RADAR Frequency 121.3 MHZ
Type ATIS Name ATIS Frequency 126.8 MHZ
Type GND Name GND Frequency 121.9 MHZ
Type TWR Name TWR Frequency 118.7 MHZ

 AIRPORT NEAR NAVIGATION AIDS
Type NDB Name Brunei Frequency 318 KHZ
Type VOR-DME Name Brunei Frequency 112000 KHZ

-